Time;durP1;ratioP1;P1;durP2;ratioP2;P2;SDS_P1;SDS_P2;PMS_P1;PMS_P2;Temp;Humidity;BMP_temperature;BMP_pressure;BME280_temperature;BME280_humidity;BME280_pressure;Samples;Min_cycle;Max_cycle;Signal;HPM_P1;HPM_P2
2022/01/01 00:01:53;;;;;;;179.60;34.60;;;;;;;1.00;100.00;94907.84;5052662;28;20037;-66
2022/01/01 00:04:20;;;;;;;179.13;34.67;;;;;;;1.08;100.00;94903.50;5052395;28;20192;-66
2022/01/01 00:06:47;;;;;;;104.07;31.63;;;;;;;1.25;100.00;94900.66;5053012;28;20036;-67
2022/01/01 00:09:13;;;;;;;88.60;31.35;;;;;;;1.33;100.00;94902.47;5052609;28;20044;-66
2022/01/01 00:11:41;;;;;;;100.35;30.27;;;;;;;1.38;100.00;94901.47;5051972;28;20037;-67
2022/01/01 00:14:08;;;;;;;100.07;29.37;;;;;;;1.43;99.85;94903.19;5052681;28;20043;-67
2022/01/01 00:16:35;;;;;;;180.95;34.95;;;;;;;1.37;98.81;94902.63;5052339;28;20037;-66
2022/01/01 00:19:02;;;;;;;103.80;29.95;;;;;;;1.32;98.79;94910.91;5053260;28;20037;-67
2022/01/01 00:21:29;;;;;;;209.10;34.60;;;;;;;1.20;99.26;94914.34;5052537;28;20053;-66
2022/01/01 00:23:56;;;;;;;359.38;39.80;;;;;;;1.25;99.37;94916.88;5052506;28;20049;-66
2022/01/01 00:26:23;;;;;;;114.43;34.57;;;;;;;1.35;99.35;94913.75;5051953;28;20394;-67
2022/01/01 00:28:49;;;;;;;181.45;36.78;;;;;;;1.38;99.21;94913.06;5052223;28;20049;-67
2022/01/01 00:31:16;;;;;;;83.10;33.72;;;;;;;1.46;99.14;94916.03;5050209;28;20045;-66
2022/01/01 00:33:43;;;;;;;147.18;37.47;;;;;;;1.39;98.84;94922.00;5034546;28;20037;-66
2022/01/01 00:36:10;;;;;;;152.52;40.10;;;;;;;1.32;99.22;94927.16;5032615;28;20041;-67
2022/01/01 00:38:36;;;;;;;279.03;45.03;;;;;;;1.05;99.52;94929.28;5031358;28;20851;-67
2022/01/01 00:41:03;;;;;;;199.45;44.47;;;;;;;1.12;100.00;94926.03;5032513;28;20394;-66
2022/01/01 00:43:30;;;;;;;185.90;42.80;;;;;;;0.89;100.00;94922.88;5031842;28;20156;-66
2022/01/01 00:45:57;;;;;;;269.25;45.83;;;;;;;0.97;100.00;94925.50;5031807;28;20057;-67
2022/01/01 00:48:23;;;;;;;213.20;50.25;;;;;;;0.87;100.00;94917.78;5032048;28;20474;-66
2022/01/01 00:50:50;;;;;;;231.03;47.50;;;;;;;0.90;100.00;94927.16;5032194;28;20040;-66
2022/01/01 00:53:17;;;;;;;297.88;49.28;;;;;;;0.69;100.00;94921.75;5031602;28;20410;-66
2022/01/01 00:55:43;;;;;;;254.02;51.25;;;;;;;0.44;100.00;94923.47;5030731;28;20037;-66
2022/01/01 00:58:10;;;;;;;363.02;58.22;;;;;;;0.52;100.00;94925.31;5031689;28;20033;-64
2022/01/01 01:00:37;;;;;;;329.52;57.00;;;;;;;0.47;100.00;94929.00;5031820;28;20521;-66
2022/01/01 01:03:08;;;;;;;318.70;55.80;;;;;;;0.55;100.00;94924.69;5032195;28;20535;-66
2022/01/01 01:05:38;;;;;;;383.58;58.88;;;;;;;0.46;100.00;94924.72;5034717;28;20287;-66
2022/01/01 01:08:10;;;;;;;263.23;52.80;;;;;;;0.32;100.00;94922.25;5051787;28;20106;-66
2022/01/01 01:10:38;;;;;;;197.05;51.75;;;;;;;0.61;100.00;94922.59;5049028;28;20564;-66
2022/01/01 01:13:07;;;;;;;218.88;49.80;;;;;;;0.43;100.00;94917.28;5051745;28;20047;-66
2022/01/01 01:15:34;;;;;;;255.80;50.93;;;;;;;0.66;100.00;94911.56;5050961;28;20428;-66
2022/01/01 01:18:04;;;;;;;153.27;48.65;;;;;;;0.73;100.00;94922.66;5051397;28;20045;-66
2022/01/01 01:20:32;;;;;;;207.32;50.50;;;;;;;0.83;100.00;94927.69;5051173;28;20029;-66
2022/01/01 01:22:59;;;;;;;124.30;45.22;;;;;;;0.95;100.00;94932.38;5051412;28;20041;-66
2022/01/01 01:25:29;;;;;;;235.13;46.55;;;;;;;0.94;100.00;94930.78;5051068;28;20049;-66
2022/01/01 01:28:05;;;;;;;269.97;46.40;;;;;;;0.85;100.00;94935.47;5051396;28;20440;-66
2022/01/01 01:30:33;;;;;;;253.43;44.97;;;;;;;0.91;100.00;94936.84;5049690;28;20037;-66
2022/01/01 01:33:00;;;;;;;154.15;41.25;;;;;;;0.86;100.00;94937.81;5044805;28;20052;-67
2022/01/01 01:35:27;;;;;;;109.65;38.03;;;;;;;0.90;100.00;94946.06;5048074;28;20049;-66
2022/01/01 01:37:54;;;;;;;148.68;35.70;;;;;;;0.83;100.00;94943.13;5051177;28;20045;-66
2022/01/01 01:40:21;;;;;;;133.87;30.93;;;;;;;0.53;100.00;94948.53;5050763;28;20053;-66
2022/01/01 01:42:48;;;;;;;126.25;29.42;;;;;;;0.53;100.00;94945.81;5050997;28;20036;-66
2022/01/01 01:45:17;;;;;;;125.00;32.83;;;;;;;0.53;100.00;94943.13;5082720;28;20041;-65
2022/01/01 01:47:46;;;;;;;228.70;37.20;;;;;;;0.62;100.00;94943.84;5050721;28;20045;-66
2022/01/01 01:50:14;;;;;;;122.45;32.92;;;;;;;0.68;100.00;94947.16;5050653;28;20040;-65
2022/01/01 01:52:45;;;;;;;97.67;30.67;;;;;;;0.61;100.00;94942.28;5050966;28;20051;-66
2022/01/01 01:55:12;;;;;;;185.93;30.27;;;;;;;0.51;100.00;94942.66;5050449;28;20040;-65
2022/01/01 01:57:41;;;;;;;97.05;26.23;;;;;;;0.43;100.00;94938.88;5050905;28;20527;-66
2022/01/01 02:03:00;;;;;;;98.15;25.67;;;;;;;0.51;100.00;94942.66;5049673;28;20140;-67
2022/01/01 02:05:27;;;;;;;179.37;24.23;;;;;;;0.44;100.00;94950.47;5050243;28;20624;-66
2022/01/01 02:07:56;;;;;;;167.80;27.75;;;;;;;0.31;99.87;94950.38;5050388;28;20049;-66
2022/01/01 02:10:24;;;;;;;102.25;22.17;;;;;;;0.28;100.00;94955.63;5050043;28;20494;-65
2022/01/01 02:12:54;;;;;;;77.38;22.25;;;;;;;0.34;100.00;94962.41;5050514;28;20064;-66
2022/01/01 02:18:05;;;;;;;118.20;25.33;;;;;;;0.13;100.00;94968.53;5050310;28;20041;-66
2022/01/01 02:20:32;;;;;;;125.18;25.67;;;;;;;0.21;100.00;94966.94;5050075;28;20049;-66
2022/01/01 02:23:00;;;;;;;114.15;23.83;;;;;;;0.21;100.00;94966.16;5032525;28;20044;-66
2022/01/01 02:25:29;;;;;;;199.35;27.02;;;;;;;0.20;100.00;94968.03;5049730;28;20046;-66
2022/01/01 02:27:56;;;;;;;106.75;23.73;;;;;;;0.30;100.00;94970.41;5050021;28;20048;-66
2022/01/01 02:30:23;;;;;;;132.80;21.97;;;;;;;0.18;100.00;94967.56;5049730;28;20041;-66
2022/01/01 02:32:50;;;;;;;116.57;22.27;;;;;;;0.15;100.00;94962.81;5037194;28;20067;-66
2022/01/01 02:35:18;;;;;;;125.07;25.45;;;;;;;0.02;100.00;94961.09;5029785;28;20048;-65
2022/01/01 02:37:45;;;;;;;61.00;21.23;;;;;;;0.12;100.00;94966.97;5028581;28;20041;-66
2022/01/01 02:40:13;;;;;;;75.75;21.40;;;;;;;0.26;100.00;94963.25;5029598;28;20041;-66
2022/01/01 02:42:42;;;;;;;62.87;23.17;;;;;;;0.31;100.00;94969.25;5030040;28;20052;-66
2022/01/01 02:45:11;;;;;;;109.47;21.80;;;;;;;0.42;100.00;94968.91;5030050;28;20041;-66
2022/01/01 02:47:38;;;;;;;86.28;20.30;;;;;;;0.31;100.00;94980.06;5029121;28;20324;-66
2022/01/01 02:50:06;;;;;;;59.05;18.23;;;;;;;0.42;100.00;94979.69;5028532;28;20045;-66
2022/01/01 02:52:33;;;;;;;73.95;23.20;;;;;;;0.47;100.00;94982.25;5029667;28;20041;-66
2022/01/01 02:55:00;;;;;;;77.77;21.83;;;;;;;0.56;100.00;94983.78;5028254;28;20056;-67
2022/01/01 02:57:27;;;;;;;112.07;21.60;;;;;;;0.60;100.00;94975.78;5029499;28;20044;-67
2022/01/01 02:59:54;;;;;;;76.07;19.67;;;;;;;0.60;100.00;94983.91;5029760;28;20049;-66
2022/01/01 03:02:21;;;;;;;116.63;20.25;;;;;;;0.66;100.00;94979.91;5029255;28;20092;-66
2022/01/01 03:04:48;;;;;;;81.22;19.80;;;;;;;0.72;100.00;94980.50;5029404;28;20045;-66
2022/01/01 03:07:15;;;;;;;122.07;19.17;;;;;;;0.61;100.00;94971.22;5045518;28;20369;-68
2022/01/01 03:09:42;;;;;;;100.25;19.20;;;;;;;0.58;100.00;94972.63;5051648;28;20440;-67
2022/01/01 03:12:10;;;;;;;56.95;18.27;;;;;;;0.37;100.00;94976.06;5052495;28;20049;-67
2022/01/01 03:14:37;;;;;;;66.90;18.27;;;;;;;0.54;100.00;94966.31;5050571;28;20760;-67
2022/01/01 03:17:05;;;;;;;119.13;19.67;;;;;;;0.62;100.00;94975.47;5050773;28;20040;-67
2022/01/01 03:19:33;;;;;;;57.53;18.37;;;;;;;0.65;99.91;94981.03;5048445;28;20053;-67
2022/01/01 03:22:01;;;;;;;104.43;18.77;;;;;;;0.19;99.61;94985.34;5049664;28;20041;-67
2022/01/01 03:24:28;;;;;;;110.50;16.95;;;;;;;-0.05;100.00;94975.09;5049147;28;20045;-66
2022/01/01 03:26:56;;;;;;;99.30;16.45;;;;;;;0.02;100.00;94980.00;5049188;28;20041;-67
2022/01/01 03:29:23;;;;;;;112.40;19.38;;;;;;;0.10;100.00;94980.00;5048926;28;20045;-66
2022/01/01 03:31:50;;;;;;;78.57;16.70;;;;;;;0.11;100.00;94986.19;5048947;28;20047;-67
2022/01/01 03:34:17;;;;;;;90.90;16.20;;;;;;;0.14;100.00;94975.53;5048665;28;20047;-66
2022/01/01 03:36:44;;;;;;;59.35;15.93;;;;;;;0.28;100.00;94982.63;5048835;28;20040;-66
2022/01/01 03:39:11;;;;;;;77.53;15.57;;;;;;;0.24;100.00;94982.47;5048775;28;20140;-65
2022/01/01 03:41:37;;;;;;;76.63;16.88;;;;;;;0.25;99.85;94986.75;5049498;28;20286;-66
2022/01/01 03:44:04;;;;;;;180.23;18.93;;;;;;;0.15;99.62;94979.03;5047778;28;20037;-66
2022/01/01 03:46:31;;;;;;;131.88;16.55;;;;;;;0.18;99.52;94979.16;5048631;28;20037;-66
2022/01/01 03:48:58;;;;;;;80.80;19.10;;;;;;;0.23;99.82;94988.22;5048908;28;20037;-66
2022/01/01 03:51:25;;;;;;;123.15;15.85;;;;;;;-0.11;99.01;94987.19;5048477;28;20159;-66
2022/01/01 03:53:52;;;;;;;96.13;16.40;;;;;;;-0.30;100.00;94999.13;5049018;28;20047;-66
2022/01/01 03:56:18;;;;;;;117.10;16.50;;;;;;;-0.35;100.00;94995.78;5048899;28;20039;-66
2022/01/01 03:58:45;;;;;;;141.90;18.75;;;;;;;-0.46;100.00;94993.44;5047678;28;20037;-67
2022/01/01 04:01:12;;;;;;;51.90;16.30;;;;;;;-0.28;100.00;94996.09;5048696;28;20051;-66
2022/01/01 04:03:39;;;;;;;103.05;19.98;;;;;;;-0.28;100.00;94998.78;5036343;28;20056;-66
2022/01/01 04:06:06;;;;;;;104.32;20.35;;;;;;;-0.21;100.00;94999.88;5047452;28;20360;-66
2022/01/01 04:08:32;;;;;;;100.60;17.53;;;;;;;-0.29;100.00;94986.44;5048423;28;20063;-66
2022/01/01 04:10:59;;;;;;;84.30;16.75;;;;;;;-0.33;100.00;94988.97;5048792;28;20421;-66
2022/01/01 04:13:26;;;;;;;105.68;16.48;;;;;;;-0.37;100.00;94979.94;5047105;28;20048;-66
2022/01/01 04:15:53;;;;;;;74.90;15.35;;;;;;;-0.69;100.00;94973.91;5047122;28;20049;-66
2022/01/01 04:18:28;;;;;;;53.10;17.33;;;;;;;-0.66;100.00;94972.50;5048532;28;20057;-66
2022/01/01 04:20:55;;;;;;;85.20;17.60;;;;;;;-0.92;100.00;94962.53;5048733;28;20037;-66
2022/01/01 04:23:23;;;;;;;94.18;19.73;;;;;;;-0.89;100.00;94956.47;5048295;28;20037;-66
2022/01/01 04:25:50;;;;;;;112.68;19.17;;;;;;;-0.86;100.00;94957.78;5048710;28;20113;-66
2022/01/01 04:28:17;;;;;;;62.97;16.83;;;;;;;-0.82;100.00;94951.41;5048348;28;20481;-66
2022/01/01 04:30:44;;;;;;;107.25;18.05;;;;;;;-0.72;100.00;94958.41;5051048;28;20068;-66
2022/01/01 04:33:11;;;;;;;186.77;22.23;;;;;;;-0.64;100.00;94952.22;5052160;28;20071;-62
2022/01/01 04:35:37;;;;;;;108.35;17.00;;;;;;;-0.71;100.00;94951.88;5052339;28;20041;-66
2022/01/01 04:38:07;;;;;;;136.15;19.40;;;;;;;-0.62;100.00;94958.06;5052182;28;21018;-66
2022/01/01 04:40:34;;;;;;;70.30;15.05;;;;;;;-0.84;100.00;94956.34;5051862;28;20048;-66
2022/01/01 04:43:01;;;;;;;111.75;15.65;;;;;;;-1.02;100.00;94946.66;5052027;28;20397;-66
2022/01/01 04:45:27;;;;;;;121.57;14.63;;;;;;;-1.14;100.00;94944.59;5051869;28;20048;-65
2022/01/01 04:47:54;;;;;;;49.88;14.82;;;;;;;-0.96;100.00;94950.78;5051878;28;20045;-66
2022/01/01 04:50:21;;;;;;;40.30;13.63;;;;;;;-0.86;100.00;94949.69;5050382;28;20113;-66
2022/01/01 04:52:48;;;;;;;58.65;14.07;;;;;;;-0.74;100.00;94949.84;5051965;28;20041;-67
2022/01/01 04:55:15;;;;;;;60.42;13.93;;;;;;;-0.67;100.00;94950.13;5051387;28;20413;-66
2022/01/01 04:57:42;;;;;;;61.73;14.70;;;;;;;-0.71;100.00;94951.09;5052083;28;20505;-65
2022/01/01 05:00:09;;;;;;;58.58;14.40;;;;;;;-0.83;100.00;94946.34;5051797;28;20490;-66
2022/01/01 05:02:35;;;;;;;74.65;15.07;;;;;;;-0.74;100.00;94944.44;5045892;28;20049;-66
2022/01/01 05:05:02;;;;;;;86.03;15.23;;;;;;;-0.75;100.00;94947.47;5040010;28;20041;-66
2022/01/01 05:07:29;;;;;;;84.30;16.05;;;;;;;-0.70;100.00;94950.00;5051149;28;20079;-66
2022/01/01 05:09:56;;;;;;;110.47;14.70;;;;;;;-0.99;100.00;94953.31;5051602;28;20041;-66
2022/01/01 05:12:22;;;;;;;133.07;16.20;;;;;;;-1.05;100.00;94958.88;5051485;28;20045;-65
2022/01/01 05:14:49;;;;;;;76.93;13.98;;;;;;;-0.99;100.00;94961.41;5051342;28;20037;-66
2022/01/01 05:17:17;;;;;;;99.63;16.00;;;;;;;-0.86;100.00;94961.25;5051269;28;20041;-65
2022/01/01 05:19:44;;;;;;;65.22;14.60;;;;;;;-0.77;100.00;94955.06;5051534;28;20114;-65
2022/01/01 05:22:11;;;;;;;53.67;13.57;;;;;;;-0.67;100.00;94966.31;5051053;28;20040;-65
2022/01/01 05:24:38;;;;;;;78.05;13.45;;;;;;;-0.63;100.00;94959.16;5050377;28;20041;-66
2022/01/01 05:27:04;;;;;;;37.60;12.00;;;;;;;-0.60;100.00;94965.84;5051058;28;20486;-66
2022/01/01 05:29:31;;;;;;;83.65;13.80;;;;;;;-0.72;100.00;94958.41;5051071;28;20385;-66
2022/01/01 05:31:58;;;;;;;71.55;13.27;;;;;;;-1.08;100.00;94970.28;5050833;28;20041;-66
2022/01/01 05:34:24;;;;;;;104.17;21.57;;;;;;;-0.92;100.00;94977.91;5050887;28;20060;-66
2022/01/01 05:36:52;;;;;;;85.32;17.35;;;;;;;-0.86;100.00;94974.72;5051141;28;20051;-66
2022/01/01 05:39:19;;;;;;;84.93;15.38;;;;;;;-0.97;100.00;94984.22;5051085;28;20083;-66
2022/01/01 05:41:46;;;;;;;107.50;15.95;;;;;;;-0.90;100.00;94978.38;5050631;28;20037;-66
2022/01/01 05:44:13;;;;;;;122.90;18.02;;;;;;;-0.94;100.00;94975.50;5049378;28;20052;-65
2022/01/01 05:46:40;;;;;;;110.67;18.57;;;;;;;-0.96;100.00;94974.25;5051308;28;20037;-66
2022/01/01 05:49:07;;;;;;;64.38;16.92;;;;;;;-1.04;100.00;94973.91;5050641;28;20105;-66
2022/01/01 05:51:33;;;;;;;88.03;16.13;;;;;;;-1.26;100.00;94972.13;5050575;28;20059;-66
2022/01/01 05:54:00;;;;;;;107.22;16.83;;;;;;;-1.32;100.00;94959.94;5049375;28;20059;-66
2022/01/01 05:56:27;;;;;;;74.35;14.32;;;;;;;-1.31;100.00;94958.84;5050534;28;20045;-66
2022/01/01 05:58:53;;;;;;;141.37;16.73;;;;;;;-1.17;100.00;94958.69;5049548;28;20044;-66
2022/01/01 06:01:20;;;;;;;93.75;15.10;;;;;;;-1.08;100.00;94956.00;5050464;28;20037;-66
2022/01/01 06:03:47;;;;;;;66.15;14.73;;;;;;;-1.03;100.00;94956.66;5050777;28;20051;-66
2022/01/01 06:06:15;;;;;;;81.65;14.20;;;;;;;-1.14;100.00;94959.97;5050038;28;20094;-66
2022/01/01 06:08:57;;;;;;;59.90;12.68;;;;;;;-1.24;100.00;94963.75;5050367;28;20036;-66
2022/01/01 06:11:24;;;;;;;101.83;14.23;;;;;;;-1.29;100.00;94964.72;5048823;28;20051;-65
2022/01/01 06:13:51;;;;;;;49.45;12.40;;;;;;;-1.11;100.00;94968.19;5050320;28;20130;-66
2022/01/01 06:16:18;;;;;;;151.73;14.77;;;;;;;-1.21;100.00;94963.09;5050286;28;20067;-66
2022/01/01 06:18:45;;;;;;;86.30;14.13;;;;;;;-1.19;100.00;94973.56;5050420;28;20048;-66
2022/01/01 06:21:11;;;;;;;41.00;13.55;;;;;;;-1.03;100.00;94970.13;5049967;28;20047;-66
2022/01/01 06:23:40;;;;;;;64.60;15.23;;;;;;;-0.96;100.00;94969.66;5048991;28;20045;-66
2022/01/01 06:26:07;;;;;;;56.42;14.95;;;;;;;-0.92;100.00;94972.50;5050115;28;20039;-66
2022/01/01 06:28:34;;;;;;;58.60;16.33;;;;;;;-0.90;100.00;94975.69;5049833;28;20075;-66
2022/01/01 06:31:00;;;;;;;71.78;13.50;;;;;;;-1.27;100.00;94972.44;5050081;28;20040;-66
2022/01/01 06:33:27;;;;;;;59.30;12.48;;;;;;;-1.24;100.00;94975.31;5048473;28;20045;-65
2022/01/01 06:35:56;;;;;;;54.90;13.33;;;;;;;-1.21;100.00;94981.97;5048925;28;20037;-66
2022/01/01 06:38:22;;;;;;;56.67;14.05;;;;;;;-1.11;100.00;94973.59;5050021;28;20049;-65
2022/01/01 06:40:49;;;;;;;78.78;14.63;;;;;;;-1.21;100.00;94985.47;5049041;28;20037;-66
2022/01/01 06:43:18;;;;;;;54.22;15.20;;;;;;;-1.23;100.00;94987.69;5049542;28;20534;-66
2022/01/01 06:45:45;;;;;;;148.80;19.85;;;;;;;-1.30;100.00;94992.72;5048605;28;20112;-66
2022/01/01 06:48:11;;;;;;;90.60;16.97;;;;;;;-1.19;100.00;94990.53;5049209;28;20041;-65
2022/01/01 06:50:38;;;;;;;120.00;20.08;;;;;;;-1.11;100.00;94997.81;5049882;28;20047;-67
2022/01/01 06:53:11;;;;;;;91.15;21.52;;;;;;;-1.04;100.00;94995.47;5048897;28;20036;-66
2022/01/01 06:55:39;;;;;;;99.88;22.63;;;;;;;-1.06;100.00;94996.91;5047785;28;20405;-66
2022/01/01 06:58:06;;;;;;;162.98;26.10;;;;;;;-1.21;100.00;94987.34;5048276;28;20063;-66
2022/01/01 07:00:33;;;;;;;179.90;25.47;;;;;;;-1.14;100.00;94986.91;5048193;28;20045;-66
2022/01/01 07:03:00;;;;;;;83.43;20.30;;;;;;;-1.16;100.00;94981.81;5032108;28;20650;-66
2022/01/01 07:05:27;;;;;;;61.70;17.88;;;;;;;-1.11;100.00;94983.56;5031891;28;20057;-66
2022/01/01 07:07:54;;;;;;;67.95;18.02;;;;;;;-1.11;100.00;94983.56;5049555;28;20459;-67
2022/01/01 07:10:20;;;;;;;73.43;17.63;;;;;;;-1.34;100.00;94993.69;5048678;28;20041;-66
2022/01/01 07:12:47;;;;;;;52.20;16.60;;;;;;;-1.38;100.00;94995.41;5049655;28;20055;-66
2022/01/01 07:15:17;;;;;;;52.53;17.08;;;;;;;-1.37;100.00;94999.69;5048602;28;20055;-66
2022/01/01 07:17:44;;;;;;;56.90;17.92;;;;;;;-1.22;100.00;95002.72;5049459;28;20059;-66
2022/01/01 07:20:11;;;;;;;67.88;17.98;;;;;;;-1.28;100.00;95001.28;5048901;28;20480;-65
2022/01/01 07:22:43;;;;;;;61.38;18.63;;;;;;;-1.14;100.00;95003.06;5049487;28;20440;-66
2022/01/01 07:25:11;;;;;;;65.73;16.50;;;;;;;-1.14;100.00;94998.47;5049144;28;20049;-66
2022/01/01 07:27:38;;;;;;;71.32;17.08;;;;;;;-1.01;100.00;94999.44;5047325;28;20486;-66
2022/01/01 07:30:07;;;;;;;42.55;15.88;;;;;;;-1.03;100.00;94997.06;5049405;28;20037;-66
2022/01/01 07:32:41;;;;;;;60.55;16.42;;;;;;;-0.92;100.00;94992.16;5048304;28;20405;-66
2022/01/01 07:35:09;;;;;;;46.25;16.73;;;;;;;-0.91;99.26;94988.34;5049263;28;20036;-66
2022/01/01 07:37:35;;;;;;;45.97;14.80;;;;;;;-0.83;99.40;94998.34;5048753;28;20041;-67
2022/01/01 07:40:04;;;;;;;40.25;14.05;;;;;;;-0.81;99.38;94992.63;5048779;28;20051;-66
2022/01/01 07:42:31;;;;;;;81.07;15.63;;;;;;;-0.86;99.33;95001.66;5049156;28;20060;-67
2022/01/01 07:44:59;;;;;;;111.07;13.77;;;;;;;-0.84;99.01;94996.75;5049073;28;20113;-67
2022/01/01 07:47:27;;;;;;;51.58;11.38;;;;;;;-1.02;98.73;94998.63;5048783;28;20041;-66
2022/01/01 07:49:53;;;;;;;100.33;10.77;;;;;;;-1.18;99.82;94994.81;5047985;28;20370;-66
2022/01/01 07:52:20;;;;;;;67.00;10.50;;;;;;;-1.26;100.00;94995.59;5048823;28;20045;-66
2022/01/01 07:54:47;;;;;;;109.22;11.68;;;;;;;-1.17;100.00;94990.22;5049282;28;20417;-66
2022/01/01 07:57:14;;;;;;;119.05;11.90;;;;;;;-1.01;100.00;94985.97;5048637;28;20053;-66
2022/01/01 07:59:41;;;;;;;117.00;13.60;;;;;;;-1.02;100.00;94985.16;5047817;28;20409;-66
2022/01/01 08:02:08;;;;;;;66.13;11.87;;;;;;;-0.87;100.00;94983.91;5038419;28;20076;-66
2022/01/01 08:04:35;;;;;;;135.63;13.85;;;;;;;-0.79;100.00;94990.41;5037897;28;20414;-66
2022/01/01 08:07:02;;;;;;;80.47;12.32;;;;;;;-0.69;100.00;94983.91;5048573;28;20444;-66
2022/01/01 08:09:48;;;;;;;39.47;10.30;;;;;;;-0.63;99.59;94985.34;5032199;28;22748;-66
2022/01/01 08:12:15;;;;;;;78.60;9.85;;;;;;;-0.64;98.93;94971.06;5030967;28;20041;-66
2022/01/01 08:14:42;;;;;;;46.97;9.63;;;;;;;-0.58;99.06;94974.41;5032740;28;20043;-66
2022/01/01 08:17:08;;;;;;;59.53;10.38;;;;;;;-0.21;99.08;94975.59;5032669;28;20068;-66
2022/01/01 08:19:35;;;;;;;52.65;10.30;;;;;;;-0.25;98.12;94981.97;5032564;28;20045;-66
2022/01/01 08:22:03;;;;;;;38.95;9.35;;;;;;;0.37;97.72;94977.97;5032700;28;20033;-67
2022/01/01 08:24:30;;;;;;;47.10;8.57;;;;;;;0.72;96.43;94981.28;5032375;28;20490;-66
2022/01/01 08:26:57;;;;;;;47.60;9.00;;;;;;;0.30;93.89;94981.19;5033078;28;20037;-67
2022/01/01 08:29:24;;;;;;;34.05;8.00;;;;;;;0.39;94.93;94976.53;5032247;28;20041;-66
2022/01/01 08:31:51;;;;;;;44.47;7.95;;;;;;;0.68;94.02;94972.25;5032603;28;20037;-67
2022/01/01 08:34:19;;;;;;;139.20;9.52;;;;;;;1.15;92.00;94980.25;5032023;28;20041;-66
2022/01/01 08:36:46;;;;;;;34.20;7.63;;;;;;;1.18;92.42;94970.69;5032698;28;20048;-67
2022/01/01 08:39:15;;;;;;;25.27;7.23;;;;;;;1.76;90.61;94981.66;5032113;28;20053;-67
2022/01/01 08:41:46;;;;;;;21.65;7.57;;;;;;;1.84;88.83;94983.47;5032574;28;20052;-67
2022/01/01 08:44:13;;;;;;;71.40;8.65;;;;;;;1.66;88.08;94984.78;5031707;28;20049;-66
2022/01/01 08:46:40;;;;;;;57.55;8.30;;;;;;;2.12;86.77;94983.69;5032435;28;20041;-67
2022/01/01 08:49:07;;;;;;;42.83;8.43;;;;;;;1.96;86.72;94988.16;5032165;28;20037;-67
2022/01/01 08:51:42;;;;;;;36.53;8.03;;;;;;;2.06;86.76;94993.13;5030797;28;20041;-67
2022/01/01 08:54:14;;;;;;;20.08;7.88;;;;;;;2.33;86.08;94990.94;5032349;28;20059;-67
2022/01/01 08:56:42;;;;;;;19.55;8.43;;;;;;;2.82;85.45;94973.91;5031375;28;21780;-67
2022/01/01 08:59:09;;;;;;;22.30;8.63;;;;;;;3.28;83.88;94988.09;5031002;28;20046;-67
2022/01/01 09:01:36;;;;;;;26.27;8.30;;;;;;;3.08;82.68;94981.66;5031573;28;20041;-67
2022/01/01 09:04:03;;;;;;;21.83;7.90;;;;;;;3.17;83.48;94983.13;5030707;28;20045;-67
2022/01/01 09:06:30;;;;;;;18.83;7.70;;;;;;;3.75;81.15;94988.28;5031615;28;20410;-67
2022/01/01 09:08:57;;;;;;;15.18;7.18;;;;;;;4.40;77.94;94987.28;5032149;28;20046;-67
2022/01/01 09:11:23;;;;;;;11.38;6.43;;;;;;;6.04;72.61;94989.41;5029943;28;20037;-67
2022/01/01 09:13:50;;;;;;;15.63;6.68;;;;;;;7.92;67.38;94983.75;5031983;28;20041;-68
2022/01/01 09:16:19;;;;;;;13.90;6.57;;;;;;;7.69;65.95;94983.09;5030579;28;20482;-67
2022/01/01 09:18:47;;;;;;;29.20;6.70;;;;;;;6.89;65.66;94981.16;5031945;28;20475;-68
2022/01/01 09:21:15;;;;;;;31.15;7.10;;;;;;;5.90;69.55;94979.00;5031283;28;20053;-67
2022/01/01 09:23:42;;;;;;;23.13;7.20;;;;;;;5.50;71.98;94982.84;5030577;28;20045;-68
2022/01/01 09:26:09;;;;;;;17.02;7.03;;;;;;;6.17;70.11;94981.84;5031259;28;20051;-67
2022/01/01 09:28:36;;;;;;;32.13;8.13;;;;;;;6.03;72.60;94982.38;5030926;28;20797;-67
2022/01/01 09:31:03;;;;;;;24.38;7.93;;;;;;;6.76;69.33;94990.66;5031471;28;20052;-67
2022/01/01 09:33:31;;;;;;;13.43;7.35;;;;;;;7.79;65.13;94977.75;5018770;28;20053;-68
2022/01/01 09:35:59;;;;;;;11.85;7.07;;;;;;;9.02;62.04;94968.06;5024858;28;20068;-68
2022/01/01 09:38:26;;;;;;;11.32;6.85;;;;;;;11.83;57.13;94967.53;5030911;28;20391;-68
2022/01/01 09:40:54;;;;;;;10.67;7.00;;;;;;;12.39;55.75;94971.25;5031384;28;20045;-68
2022/01/01 09:43:23;;;;;;;11.73;7.57;;;;;;;13.09;50.06;94965.69;5030660;28;20793;-68
2022/01/01 09:45:52;;;;;;;10.85;7.13;;;;;;;12.41;49.27;94966.13;5031460;28;20044;-68
2022/01/01 09:48:21;;;;;;;10.93;7.25;;;;;;;13.51;46.61;94958.25;5030748;28;20043;-68
2022/01/01 09:50:54;;;;;;;16.17;10.38;;;;;;;13.60;47.54;94963.28;5031187;28;20045;-68
2022/01/01 09:53:24;;;;;;;24.70;15.57;;;;;;;15.48;43.23;94965.09;5030654;28;20053;-68
2022/01/01 09:55:52;;;;;;;12.23;8.18;;;;;;;15.45;43.11;94961.19;5031166;28;20040;-68
2022/01/01 09:58:30;;;;;;;9.40;7.40;;;;;;;16.53;39.92;94954.38;5030421;28;20041;-68
2022/01/01 10:00:57;;;;;;;11.18;8.30;;;;;;;17.32;38.60;94952.56;5031287;28;20044;-68
2022/01/01 10:03:27;;;;;;;11.18;7.90;;;;;;;16.87;37.81;94958.03;5029072;28;20049;-68
2022/01/01 10:06:14;;;;;;;10.87;8.20;;;;;;;17.42;39.31;94963.84;5031002;28;20044;-68
2022/01/01 10:08:45;;;;;;;8.98;7.35;;;;;;;18.86;37.02;94955.97;5030264;28;20918;-68
2022/01/01 10:11:16;;;;;;;9.25;6.80;;;;;;;19.75;35.38;94962.66;5030200;28;20041;-68
2022/01/01 10:13:43;;;;;;;9.65;7.43;;;;;;;20.88;33.38;94958.22;5030541;28;20041;-69
2022/01/01 10:16:14;;;;;;;8.73;6.78;;;;;;;21.01;34.33;94950.53;5030102;28;20052;-69
2022/01/01 10:19:01;;;;;;;8.00;6.40;;;;;;;20.26;32.92;94954.13;5030877;28;20384;-69
2022/01/01 10:21:31;;;;;;;9.80;6.90;;;;;;;20.18;33.81;94944.44;5030558;28;20045;-69
2022/01/01 10:23:58;;;;;;;9.30;7.47;;;;;;;20.00;34.77;94938.72;5030905;28;20072;-69
2022/01/01 10:29:30;;;;;;;11.32;8.18;;;;;;;20.85;33.42;94934.81;5029736;28;20045;-69
2022/01/01 10:32:03;;;;;;;11.17;7.90;;;;;;;20.46;33.35;94945.41;5030522;28;20502;-69
2022/01/01 10:34:37;;;;;;;10.00;7.65;;;;;;;20.72;34.04;94940.47;5030185;28;20037;-69
2022/01/01 10:37:28;;;;;;;13.07;9.07;;;;;;;21.12;32.52;94936.16;5029997;28;20053;-69
2022/01/01 10:39:55;;;;;;;13.85;10.48;;;;;;;19.93;34.67;94939.75;5030335;28;20044;-69
2022/01/01 10:42:23;;;;;;;13.85;10.57;;;;;;;21.05;33.15;94928.06;5029765;28;20050;-69
2022/01/01 10:44:52;;;;;;;9.70;7.70;;;;;;;21.23;33.01;94928.13;5030067;28;20041;-69
2022/01/01 10:47:27;;;;;;;11.00;7.93;;;;;;;22.12;32.14;94923.59;5030143;28;20045;-70
2022/01/01 10:52:45;;;;;;;9.73;7.43;;;;;;;22.08;30.98;94920.19;5010375;28;21548;-70
2022/01/01 10:55:14;;;;;;;11.05;8.07;;;;;;;19.65;35.64;94931.13;5010397;28;20046;-69
2022/01/01 10:57:51;;;;;;;9.60;7.50;;;;;;;20.54;34.37;94918.81;5010548;28;20038;-69
2022/01/01 11:00:24;;;;;;;9.10;7.15;;;;;;;21.41;33.65;94907.84;5009717;28;20065;-69
2022/01/01 11:02:53;;;;;;;10.13;7.60;;;;;;;21.94;32.84;94913.19;5010227;28;20038;-70
2022/01/01 11:05:30;;;;;;;10.15;7.70;;;;;;;22.67;31.84;94903.16;5010891;28;20050;-69
2022/01/01 11:07:59;;;;;;;9.15;7.20;;;;;;;22.32;32.21;94897.97;5030098;28;20509;-70
2022/01/01 11:10:27;;;;;;;11.47;8.30;;;;;;;22.58;31.88;94905.22;5029038;28;20493;-70
2022/01/01 11:12:55;;;;;;;12.30;8.57;;;;;;;22.76;31.42;94901.59;5029899;28;20049;-70
2022/01/01 11:15:22;;;;;;;11.43;8.00;;;;;;;22.60;31.57;94892.31;5027591;28;20401;-69
2022/01/01 11:17:49;;;;;;;20.20;7.60;;;;;;;23.04;31.69;94891.88;5029670;28;20059;-69
2022/01/01 11:20:18;;;;;;;11.57;7.60;;;;;;;22.08;32.96;94894.25;5028979;28;20050;-69
2022/01/01 11:22:48;;;;;;;10.17;7.37;;;;;;;23.38;31.27;94878.63;5029711;28;20048;-70
2022/01/01 11:25:15;;;;;;;9.63;6.68;;;;;;;21.11;34.36;94890.72;5028889;28;20433;-69
2022/01/01 11:27:43;;;;;;;8.15;5.88;;;;;;;23.37;31.85;94882.66;5029645;28;20471;-70
2022/01/01 11:30:11;;;;;;;7.47;5.38;;;;;;;23.59;30.47;94887.22;5029764;28;20433;-70